createdAt,value
2018-09-18T00:01:49.878Z,6.20
2018-09-18T00:09:11.842Z,5.77
2018-09-18T00:11:40.046Z,5.40
2018-09-18T00:14:08.214Z,7.17
2018-09-18T00:16:36.476Z,9.43
2018-09-18T00:19:04.820Z,6.63
2018-09-18T00:21:33.276Z,6.03
2018-09-18T00:24:01.487Z,7.10
2018-09-18T00:26:29.756Z,9.07
2018-09-18T00:28:58.163Z,4.80
2018-09-18T00:31:26.417Z,5.53
2018-09-18T00:33:54.640Z,6.43
2018-09-18T00:36:22.824Z,5.80
2018-09-18T00:38:51.086Z,7.42
2018-09-18T00:41:19.356Z,6.27
2018-09-18T00:43:47.545Z,4.23
2018-09-18T00:46:15.782Z,5.43
2018-09-18T00:48:44.004Z,3.93
2018-09-18T00:51:12.215Z,4.07
2018-09-18T00:53:40.417Z,4.87
2018-09-18T00:56:08.631Z,5.03
2018-09-18T00:58:36.896Z,5.93
2018-09-18T01:01:05.096Z,4.37
2018-09-18T01:03:33.623Z,4.80
2018-09-18T01:06:02.334Z,4.37
2018-09-18T01:08:30.616Z,4.70
2018-09-18T01:10:58.815Z,4.03
2018-09-18T01:13:27.084Z,4.70
2018-09-18T01:15:55.283Z,3.43
2018-09-18T01:18:26.763Z,3.60
2018-09-18T01:20:55.169Z,5.73
2018-09-18T01:23:23.516Z,2.85
2018-09-18T01:25:51.757Z,3.53
2018-09-18T01:28:19.976Z,3.73
2018-09-18T01:30:48.228Z,4.90
2018-09-18T01:33:16.436Z,4.33
2018-09-18T01:35:44.638Z,3.55
2018-09-18T01:38:12.889Z,2.80
2018-09-18T01:40:42.110Z,6.00
2018-09-18T01:43:10.385Z,3.60
2018-09-18T01:46:54.398Z,4.37
2018-09-18T01:49:22.605Z,3.33
2018-09-18T01:51:50.820Z,4.10
2018-09-18T01:54:18.941Z,2.90
2018-09-18T01:56:48.042Z,4.50
2018-09-18T01:59:16.320Z,4.23
2018-09-18T02:01:44.606Z,3.47
2018-09-18T02:04:12.847Z,3.20
2018-09-18T02:06:41.115Z,3.27
2018-09-18T02:09:09.511Z,2.77
2018-09-18T02:11:37.856Z,3.37
2018-09-18T02:14:06.384Z,3.90
2018-09-18T02:16:34.631Z,4.47
2018-09-18T02:19:02.879Z,4.40
2018-09-18T02:21:31.143Z,9.00
2018-09-18T02:23:59.581Z,4.60
2018-09-18T02:26:27.859Z,2.83
2018-09-18T02:28:57.090Z,2.70
2018-09-18T02:31:25.379Z,3.35
2018-09-18T02:33:53.603Z,2.77
2018-09-18T02:36:55.279Z,3.47
2018-09-18T02:39:23.407Z,3.80
2018-09-18T02:41:51.532Z,3.13
2018-09-18T02:44:19.737Z,4.17
2018-09-18T02:46:48.606Z,3.03
2018-09-18T02:49:17.244Z,2.97
2018-09-18T02:51:45.448Z,3.20
2018-09-18T02:54:13.621Z,4.40
2018-09-18T02:56:41.891Z,6.70
2018-09-18T02:59:11.295Z,2.70
2018-09-18T03:01:40.076Z,4.40
2018-09-18T03:04:08.212Z,4.17
2018-09-18T03:06:37.099Z,4.93
2018-09-18T03:09:07.521Z,5.37
2018-09-18T03:11:35.910Z,4.07
2018-09-18T03:14:04.158Z,3.87
2018-09-18T03:16:32.410Z,3.50
2018-09-18T03:19:00.707Z,3.42
2018-09-18T03:21:28.978Z,2.93
2018-09-18T03:23:57.171Z,4.53
2018-09-18T03:26:25.359Z,3.17
2018-09-18T03:28:54.021Z,4.33
2018-09-18T03:31:22.307Z,3.50
2018-09-18T03:33:50.587Z,3.10
2018-09-18T03:36:18.786Z,3.67
2018-09-18T03:38:47.033Z,4.30
2018-09-18T03:41:16.120Z,3.13
2018-09-18T03:43:44.337Z,3.07
2018-09-18T03:46:12.597Z,2.80
2018-09-18T03:48:40.760Z,4.33
2018-09-18T03:51:09.190Z,3.27
2018-09-18T03:53:38.576Z,3.50
2018-09-18T03:56:07.127Z,3.23
2018-09-18T03:58:35.365Z,4.77
2018-09-18T04:01:03.729Z,3.40
2018-09-18T04:08:24.958Z,2.80
2018-09-18T04:10:53.154Z,4.17
2018-09-18T04:13:21.348Z,4.13
2018-09-18T04:15:49.900Z,4.77
2018-09-18T04:18:20.988Z,5.67
2018-09-18T04:20:49.387Z,3.97
2018-09-18T04:23:24.708Z,3.13
2018-09-18T04:25:53.526Z,5.58
2018-09-18T04:28:21.877Z,3.90
2018-09-18T04:30:50.388Z,3.57
2018-09-18T04:33:18.776Z,3.17
2018-09-18T04:35:46.984Z,4.27
2018-09-18T04:38:15.189Z,3.17
2018-09-18T04:40:43.459Z,4.20
2018-09-18T04:43:11.816Z,3.00
2018-09-18T04:45:39.974Z,4.00
2018-09-18T04:53:04.382Z,4.80
2018-09-18T04:55:33.422Z,3.40
2018-09-18T04:58:01.613Z,3.10
2018-09-18T05:00:29.812Z,3.40
2018-09-18T05:02:58.002Z,5.30
2018-09-18T05:05:26.177Z,5.03
2018-09-18T05:07:54.404Z,3.07
2018-09-18T05:10:24.182Z,3.60
2018-09-18T05:12:52.433Z,8.03
2018-09-18T05:15:20.864Z,4.00
2018-09-18T05:17:49.145Z,3.53
2018-09-18T05:20:17.355Z,7.17
2018-09-18T05:22:45.714Z,6.05
2018-09-18T05:25:13.913Z,5.60
2018-09-18T05:27:42.089Z,4.30
2018-09-18T05:30:10.367Z,3.83
2018-09-18T05:32:38.633Z,6.23
2018-09-18T05:35:06.820Z,3.63
2018-09-18T05:37:34.984Z,6.33
2018-09-18T05:40:03.175Z,3.87
2018-09-18T05:42:31.422Z,4.10
2018-09-18T05:44:59.740Z,3.47
2018-09-18T05:47:28.061Z,3.53
2018-09-18T05:49:57.185Z,3.80
2018-09-18T05:52:25.367Z,4.17
2018-09-18T05:54:53.626Z,4.43
2018-09-18T05:57:21.937Z,4.50
2018-09-18T05:59:51.134Z,7.90
2018-09-18T06:02:19.430Z,3.63
2018-09-18T06:04:47.727Z,5.50
2018-09-18T06:07:16.836Z,6.58
2018-09-18T06:09:45.025Z,5.53
2018-09-18T06:12:14.098Z,8.00
2018-09-18T06:14:42.353Z,6.80
2018-09-18T06:17:10.528Z,8.77
2018-09-18T06:19:38.740Z,7.40
2018-09-18T06:22:07.050Z,6.23
2018-09-18T06:24:35.283Z,5.13
2018-09-18T06:27:03.567Z,3.27
2018-09-18T06:29:32.401Z,4.37
2018-09-18T06:32:00.609Z,4.57
2018-09-18T06:34:28.820Z,3.70
2018-09-18T06:36:57.225Z,13.23
2018-09-18T06:39:25.461Z,6.07
2018-09-18T06:41:54.129Z,5.92
2018-09-18T06:44:22.400Z,5.83
2018-09-18T06:46:50.610Z,4.60
2018-09-18T06:49:18.832Z,5.40
2018-09-18T06:51:47.149Z,4.20
2018-09-18T06:54:15.416Z,6.57
2018-09-18T06:56:43.699Z,3.60
2018-09-18T06:59:12.005Z,4.37
2018-09-18T07:01:40.166Z,6.00
2018-09-18T07:04:08.396Z,4.30
2018-09-18T07:06:36.661Z,8.77
2018-09-18T07:13:59.964Z,4.93
2018-09-18T07:16:34.925Z,4.70
2018-09-18T07:19:03.071Z,4.43
2018-09-18T07:21:31.200Z,5.55
2018-09-18T07:23:59.430Z,4.47
2018-09-18T07:26:27.655Z,7.65
2018-09-18T07:28:55.880Z,5.87
2018-09-18T07:36:16.939Z,3.87
2018-09-18T07:38:45.207Z,4.85
2018-09-18T07:41:13.476Z,5.37
2018-09-18T07:43:41.759Z,5.37
2018-09-18T07:46:10.033Z,4.60
2018-09-18T07:48:39.136Z,5.42
2018-09-18T07:51:09.111Z,4.40
2018-09-18T07:53:37.406Z,6.62
2018-09-18T07:56:05.604Z,3.35
2018-09-18T07:58:33.811Z,4.33
2018-09-18T08:01:03.370Z,5.92
2018-09-18T08:03:31.730Z,5.62
2018-09-18T08:06:00.122Z,4.50
2018-09-18T08:08:28.401Z,5.78
2018-09-18T08:10:58.188Z,4.37
2018-09-18T08:13:27.401Z,3.77
2018-09-18T08:15:55.645Z,3.83
2018-09-18T08:18:25.256Z,6.00
2018-09-18T08:20:53.840Z,4.90
2018-09-18T08:23:22.198Z,4.33
2018-09-18T08:25:50.576Z,7.53
2018-09-18T08:28:18.849Z,5.37
2018-09-18T08:30:47.103Z,3.58
2018-09-18T08:33:16.907Z,4.37
2018-09-18T08:35:45.209Z,3.72
2018-09-18T08:38:13.526Z,4.65
2018-09-18T08:40:41.744Z,4.10
2018-09-18T08:43:10.187Z,5.33
2018-09-18T08:45:38.459Z,4.90
2018-09-18T08:48:06.355Z,4.78
2018-09-18T08:50:34.699Z,4.73
2018-09-18T08:53:02.965Z,5.92
2018-09-18T08:55:31.221Z,5.17
2018-09-18T08:57:59.458Z,5.37
2018-09-18T09:00:27.810Z,4.17
2018-09-18T09:02:56.066Z,3.15
2018-09-18T09:05:25.340Z,5.50
2018-09-18T09:07:53.985Z,3.05
2018-09-18T09:10:22.313Z,4.12
2018-09-18T09:12:51.436Z,3.48
2018-09-18T09:15:19.656Z,4.20
2018-09-18T09:17:48.046Z,3.62
2018-09-18T09:20:16.360Z,3.72
2018-09-18T09:22:44.732Z,3.58
2018-09-18T09:25:13.939Z,3.98
2018-09-18T09:27:42.235Z,5.75
2018-09-18T09:30:10.523Z,3.40
2018-09-18T09:32:38.737Z,6.70
2018-09-18T09:35:08.145Z,7.72
2018-09-18T09:37:36.462Z,9.07
2018-09-18T09:40:05.517Z,7.58
2018-09-18T09:42:33.697Z,3.60
2018-09-18T09:45:02.064Z,3.92
2018-09-18T09:47:30.214Z,5.50
2018-09-18T09:49:58.544Z,7.62
2018-09-18T09:52:26.856Z,5.77
2018-09-18T09:54:55.042Z,3.55
2018-09-18T09:57:26.524Z,5.33
2018-09-18T09:59:54.765Z,4.37
2018-09-18T10:02:28.100Z,4.75
2018-09-18T10:05:04.549Z,4.47
2018-09-18T10:12:27.214Z,4.17
2018-09-18T10:14:55.511Z,5.28
2018-09-18T10:17:23.713Z,5.50
2018-09-18T10:19:51.997Z,7.40
2018-09-18T10:22:20.183Z,5.47
2018-09-18T10:24:48.361Z,9.78
2018-09-18T10:27:16.627Z,5.30
2018-09-18T10:29:45.887Z,6.37
2018-09-18T10:32:14.072Z,4.92
2018-09-18T10:34:42.319Z,5.10
2018-09-18T10:37:10.654Z,6.22
2018-09-18T10:39:38.887Z,4.75
2018-09-18T10:42:07.303Z,5.47
2018-09-18T10:44:35.436Z,5.22
2018-09-18T10:47:05.442Z,5.33
2018-09-18T10:49:33.879Z,5.92
2018-09-18T10:52:01.979Z,5.53
2018-09-18T10:54:30.184Z,4.50
2018-09-18T10:56:58.447Z,7.17
2018-09-18T10:59:26.684Z,5.62
2018-09-18T11:01:55.019Z,5.72
2018-09-18T11:04:23.239Z,8.67
2018-09-18T11:06:52.229Z,5.50
2018-09-18T11:09:21.277Z,6.72
2018-09-18T11:11:49.530Z,7.03
2018-09-18T11:14:17.815Z,5.53
2018-09-18T11:16:46.192Z,5.85
2018-09-18T11:19:14.363Z,5.20
2018-09-18T11:21:42.909Z,6.00
2018-09-18T11:24:11.113Z,8.28
2018-09-18T11:26:39.316Z,11.03
2018-09-18T11:29:07.623Z,5.90
2018-09-18T11:31:37.379Z,6.90
2018-09-18T11:34:05.608Z,6.75
2018-09-18T11:36:33.828Z,7.12
2018-09-18T11:39:02.013Z,7.87
2018-09-18T11:41:30.210Z,10.95
2018-09-18T11:43:58.454Z,5.97
2018-09-18T11:46:26.786Z,8.23
2018-09-18T11:48:55.059Z,7.33
2018-09-18T11:51:23.358Z,9.15
2018-09-18T11:58:45.815Z,6.55
2018-09-18T12:01:14.024Z,5.90
2018-09-18T12:03:42.298Z,8.78
2018-09-18T12:06:10.806Z,7.08
2018-09-18T12:08:39.189Z,8.45
2018-09-18T12:11:08.881Z,6.78
2018-09-18T12:13:37.162Z,6.30
2018-09-18T12:16:05.382Z,5.67
2018-09-18T12:18:33.579Z,6.10
2018-09-18T12:21:01.834Z,6.53
2018-09-18T12:23:30.791Z,4.92
2018-09-18T12:25:59.029Z,6.40
2018-09-18T12:28:27.313Z,7.13
2018-09-18T12:30:55.594Z,13.70
2018-09-18T12:33:23.830Z,6.67
2018-09-18T12:35:52.143Z,7.67
2018-09-18T12:38:20.322Z,9.48
2018-09-18T12:40:48.591Z,10.53
2018-09-18T12:43:16.808Z,8.55
2018-09-18T12:45:45.113Z,8.20
2018-09-18T12:48:13.362Z,12.23
2018-09-18T12:50:42.690Z,8.85
2018-09-18T12:53:12.585Z,11.33
2018-09-18T12:55:40.931Z,6.78
2018-09-18T12:58:09.510Z,6.80
2018-09-18T13:00:37.795Z,5.20
2018-09-18T13:03:06.223Z,10.00
2018-09-18T13:05:35.511Z,6.53
2018-09-18T13:08:03.805Z,6.47
2018-09-18T13:10:32.087Z,5.00
2018-09-18T13:17:53.650Z,6.40
2018-09-18T13:20:21.825Z,15.13
2018-09-18T13:22:50.110Z,10.88
2018-09-18T13:25:19.357Z,10.68
2018-09-18T13:27:47.579Z,8.40
2018-09-18T13:30:16.194Z,8.05
2018-09-18T13:32:44.508Z,9.88
2018-09-18T13:35:12.601Z,8.83
2018-09-18T13:37:40.828Z,5.13
2018-09-18T13:40:09.226Z,9.90
2018-09-18T13:42:37.538Z,11.63
2018-09-18T13:45:05.736Z,4.55
2018-09-18T13:47:33.928Z,5.75
2018-09-18T13:50:02.869Z,7.37
2018-09-18T13:52:32.319Z,8.53
2018-09-18T13:55:01.390Z,8.95
2018-09-18T13:57:32.689Z,7.15
2018-09-18T14:00:02.133Z,6.50
2018-09-18T14:02:33.356Z,3.80
2018-09-18T14:05:01.720Z,9.38
2018-09-18T14:07:30.144Z,8.35
2018-09-18T14:09:58.531Z,9.77
2018-09-18T14:12:26.886Z,6.70
2018-09-18T14:14:56.497Z,4.74
2018-09-18T14:17:24.747Z,3.50
2018-09-18T14:19:55.019Z,8.83
2018-09-18T14:22:24.829Z,4.72
2018-09-18T14:24:53.156Z,5.17
2018-09-18T14:27:21.434Z,7.33
2018-09-18T14:29:49.761Z,6.58
2018-09-18T14:32:20.529Z,7.67
2018-09-18T14:34:49.053Z,4.37
2018-09-18T14:37:17.320Z,3.33
2018-09-18T14:39:45.612Z,8.33
2018-09-18T14:42:13.892Z,9.63
2018-09-18T14:44:42.384Z,8.78
2018-09-18T14:47:10.736Z,6.33
2018-09-18T14:49:39.130Z,5.72
2018-09-18T14:52:07.439Z,4.17
2018-09-18T14:54:36.517Z,7.50
2018-09-18T14:57:07.273Z,7.37
2018-09-18T14:59:37.233Z,5.37
2018-09-18T15:02:06.997Z,4.53
2018-09-18T15:09:43.722Z,6.25
2018-09-18T15:12:14.070Z,6.62
2018-09-18T15:14:45.004Z,5.92
2018-09-18T15:17:16.759Z,7.70
2018-09-18T15:19:47.825Z,4.42
2018-09-18T15:22:18.419Z,4.30
2018-09-18T15:24:50.423Z,3.27
2018-09-18T15:27:22.421Z,5.55
2018-09-18T15:29:54.743Z,5.35
2018-09-18T15:32:24.703Z,6.12
2018-09-18T15:34:55.595Z,3.25
2018-09-18T15:37:26.460Z,3.97
2018-09-18T15:40:01.994Z,5.72
2018-09-18T15:42:51.921Z,4.35
2018-09-18T15:45:24.407Z,4.17
2018-09-18T15:47:54.915Z,5.55
2018-09-18T15:50:26.940Z,4.70
2018-09-18T15:52:58.990Z,7.00
2018-09-18T15:55:29.699Z,5.43
2018-09-18T15:58:00.543Z,4.33
2018-09-18T16:00:30.417Z,3.90
2018-09-18T16:03:01.559Z,7.62
2018-09-18T16:07:16.141Z,8.14
2018-09-18T16:09:54.802Z,6.17
2018-09-18T16:12:31.448Z,5.78
2018-09-18T16:15:07.285Z,3.00
2018-09-18T16:17:49.369Z,4.47
2018-09-18T16:20:41.029Z,7.07
2018-09-18T16:23:17.181Z,6.40
2018-09-18T16:30:43.957Z,9.35
2018-09-18T16:33:14.016Z,5.47
2018-09-18T16:35:43.213Z,5.50
2018-09-18T16:38:13.908Z,5.37
2018-09-18T16:40:47.577Z,3.52
2018-09-18T16:43:18.113Z,5.00
2018-09-18T16:45:48.338Z,3.35
2018-09-18T16:48:19.083Z,4.25
2018-09-18T16:50:50.020Z,8.28
2018-09-18T16:53:20.100Z,15.30
2018-09-18T16:55:51.039Z,3.70
2018-09-18T16:58:21.947Z,4.28
2018-09-18T17:00:50.269Z,5.80
2018-09-18T17:03:18.603Z,5.22
2018-09-18T17:05:46.966Z,4.00
2018-09-18T17:08:15.353Z,5.03
2018-09-18T17:10:43.762Z,4.00
2018-09-18T17:13:12.112Z,3.98
2018-09-18T17:15:40.480Z,7.80
2018-09-18T17:18:09.076Z,8.63
2018-09-18T17:20:37.396Z,5.96
2018-09-18T17:23:05.779Z,5.55
2018-09-18T17:25:35.130Z,5.58
2018-09-18T17:28:03.388Z,5.45
2018-09-18T17:30:31.722Z,5.17
2018-09-18T17:33:00.043Z,7.83
2018-09-18T17:35:28.338Z,7.47
2018-09-18T17:37:56.773Z,5.85
2018-09-18T17:40:25.650Z,6.12
2018-09-18T17:42:55.797Z,4.53
2018-09-18T17:45:24.093Z,5.90
2018-09-18T17:47:52.411Z,3.20
2018-09-18T17:50:20.615Z,5.80
2018-09-18T17:52:49.733Z,7.97
2018-09-18T17:55:17.992Z,5.58
2018-09-18T17:57:46.394Z,6.85
2018-09-18T18:00:14.803Z,5.50
2018-09-18T18:02:43.156Z,3.70
2018-09-18T18:05:12.620Z,8.75
2018-09-18T18:07:40.857Z,5.75
2018-09-18T18:10:09.210Z,7.60
2018-09-18T18:12:38.673Z,6.05
2018-09-18T18:15:08.950Z,3.92
2018-09-18T18:17:37.487Z,7.87
2018-09-18T18:20:05.751Z,3.70
2018-09-18T18:22:34.205Z,7.78
2018-09-18T18:25:02.791Z,4.67
2018-09-18T18:27:32.140Z,4.87
2018-09-18T18:30:00.384Z,6.27
2018-09-18T18:32:28.760Z,5.08
2018-09-18T18:34:57.092Z,5.80
2018-09-18T18:37:25.279Z,3.30
2018-09-18T18:39:53.535Z,4.83
2018-09-18T18:42:21.711Z,5.97
2018-09-18T18:44:49.898Z,7.22
2018-09-18T18:47:18.141Z,5.77
2018-09-18T18:49:46.355Z,5.62
2018-09-18T18:52:14.656Z,7.08
2018-09-18T18:54:43.744Z,5.80
2018-09-18T18:57:11.853Z,9.33
2018-09-18T18:59:40.152Z,8.23
2018-09-18T19:02:08.550Z,10.93
2018-09-18T19:04:36.688Z,10.27
2018-09-18T19:11:59.370Z,9.10
2018-09-18T19:14:27.621Z,7.63
2018-09-18T19:16:56.757Z,4.57
2018-09-18T19:19:25.127Z,6.95
2018-09-18T19:21:53.393Z,9.83
2018-09-18T19:24:23.149Z,8.08
2018-09-18T19:26:51.339Z,9.25
2018-09-18T19:29:19.638Z,11.73
2018-09-18T19:31:47.938Z,7.80
2018-09-18T19:34:16.209Z,8.60
2018-09-18T19:36:44.546Z,8.87
2018-09-18T19:39:12.950Z,6.87
2018-09-18T19:41:41.308Z,5.53
2018-09-18T19:44:09.606Z,7.43
2018-09-18T19:46:37.903Z,6.57
2018-09-18T19:49:06.334Z,10.17
2018-09-18T19:51:34.682Z,6.97
2018-09-18T19:54:03.236Z,9.03
2018-09-18T19:56:31.524Z,6.40
2018-09-18T19:58:59.858Z,10.47
2018-09-18T20:01:28.134Z,8.70
2018-09-18T20:08:49.660Z,10.27
2018-09-18T20:11:17.939Z,10.83
2018-09-18T20:13:46.237Z,9.50
2018-09-18T20:16:14.414Z,8.57
2018-09-18T20:18:49.126Z,10.33
2018-09-18T20:21:17.415Z,10.37
2018-09-18T20:23:45.732Z,7.43
2018-09-18T20:26:13.984Z,8.13
2018-09-18T20:28:42.338Z,11.07
2018-09-18T20:31:10.448Z,8.83
2018-09-18T20:33:38.774Z,11.97
2018-09-18T20:36:07.122Z,7.83
2018-09-18T20:38:35.432Z,13.07
2018-09-18T20:41:03.682Z,8.77
2018-09-18T20:43:32.014Z,8.93
2018-09-18T20:46:00.190Z,6.60
2018-09-18T20:48:28.490Z,10.00
2018-09-18T20:50:56.773Z,8.35
2018-09-18T20:53:25.098Z,9.17
2018-09-18T20:55:53.368Z,14.07
2018-09-18T20:58:21.606Z,11.73
2018-09-18T21:00:51.176Z,8.30
2018-09-18T21:03:20.492Z,10.63
2018-09-18T21:05:48.739Z,11.97
2018-09-18T21:08:17.001Z,7.77
2018-09-18T21:10:45.185Z,8.97
2018-09-18T21:13:13.438Z,7.27
2018-09-18T21:15:41.845Z,9.10
2018-09-18T21:18:10.040Z,8.77
2018-09-18T21:20:38.331Z,8.63
2018-09-18T21:23:06.584Z,8.90
2018-09-18T21:26:21.231Z,6.03
2018-09-18T21:28:49.709Z,7.23
2018-09-18T21:31:18.262Z,11.60
2018-09-18T21:33:46.735Z,13.33
2018-09-18T21:36:15.086Z,11.33
2018-09-18T21:38:43.409Z,8.07
2018-09-18T21:41:11.611Z,9.43
2018-09-18T21:43:39.841Z,9.28
2018-09-18T21:46:08.066Z,9.77
2018-09-18T21:48:36.320Z,9.37
2018-09-18T21:51:04.555Z,11.20
2018-09-18T21:53:32.809Z,8.53
2018-09-18T21:56:03.060Z,12.23
2018-09-18T21:58:31.298Z,12.03
2018-09-18T22:01:03.710Z,13.35
2018-09-18T22:03:32.030Z,10.23
2018-09-18T22:06:00.271Z,9.23
2018-09-18T22:08:28.510Z,9.83
2018-09-18T22:10:56.810Z,10.67
2018-09-18T22:13:25.158Z,8.57
2018-09-18T22:15:53.589Z,10.03
2018-09-18T22:18:21.956Z,8.40
2018-09-18T22:20:50.131Z,10.23
2018-09-18T22:23:18.437Z,10.30
2018-09-18T22:25:47.675Z,12.57
2018-09-18T22:28:15.905Z,9.05
2018-09-18T22:30:44.101Z,7.63
2018-09-18T22:33:12.561Z,7.83
2018-09-18T22:35:40.754Z,12.63
2018-09-18T22:38:09.003Z,7.70
2018-09-18T22:40:37.261Z,10.50
2018-09-18T22:43:05.642Z,9.93
2018-09-18T22:45:33.955Z,11.30
2018-09-18T22:48:02.243Z,9.67
2018-09-18T22:50:30.436Z,8.63
2018-09-18T22:52:58.650Z,9.57
2018-09-18T22:55:26.886Z,8.83
2018-09-18T22:57:55.068Z,8.90
2018-09-18T23:00:23.374Z,8.70
2018-09-18T23:02:51.629Z,9.23
2018-09-18T23:05:19.922Z,10.97
2018-09-18T23:07:48.097Z,8.78
2018-09-18T23:10:16.369Z,12.00
2018-09-18T23:12:45.173Z,9.70
2018-09-18T23:15:13.398Z,6.93
2018-09-18T23:17:41.808Z,9.67
2018-09-18T23:20:10.080Z,9.47
2018-09-18T23:22:38.377Z,11.87
2018-09-18T23:25:06.609Z,10.53
2018-09-18T23:27:35.728Z,11.97
2018-09-18T23:30:03.983Z,10.30
2018-09-18T23:32:32.198Z,11.73
2018-09-18T23:35:02.120Z,11.60
2018-09-18T23:37:30.372Z,12.47
2018-09-18T23:39:58.600Z,14.13
2018-09-18T23:42:26.761Z,7.73
2018-09-18T23:44:54.934Z,11.90
2018-09-18T23:47:23.089Z,9.53
2018-09-18T23:49:51.326Z,10.87
2018-09-18T23:52:19.571Z,11.50
2018-09-18T23:54:47.767Z,9.93
2018-09-18T23:57:16.037Z,10.43
2018-09-18T23:59:44.244Z,7.50
